Time;durP1;ratioP1;P1;durP2;ratioP2;P2;SDS_P1;SDS_P2;PMS_P1;PMS_P2;Temp;Humidity;BMP_temperature;BMP_pressure;BME280_temperature;BME280_humidity;BME280_pressure;Samples;Min_cycle;Max_cycle;Signal;HPM_P1;HPM_P2
2023/04/07 00:01:22;;;;;;;6.57;5.33;;;;;;;8.63;43.23;95598.56;6181527;23;20680;-87
2023/04/07 00:03:49;;;;;;;5.67;4.90;;;;;;;8.62;42.70;95595.19;6182384;23;20201;-88
2023/04/07 00:06:15;;;;;;;5.80;5.03;;;;;;;8.68;42.75;95595.47;6183111;23;20720;-88
2023/04/07 00:08:42;;;;;;;5.13;4.63;;;;;;;8.66;43.48;95593.88;6182872;23;20185;-87
2023/04/07 00:11:10;;;;;;;6.37;5.17;;;;;;;8.70;43.11;95596.13;6182682;23;20194;-88
2023/04/07 00:13:36;;;;;;;5.63;5.00;;;;;;;8.72;43.44;95595.00;6183475;23;20171;-88
2023/04/07 00:16:02;;;;;;;6.47;5.13;;;;;;;8.68;43.62;95588.59;6183299;23;20733;-87
2023/04/07 00:18:29;;;;;;;5.57;4.97;;;;;;;8.66;43.88;95591.31;6182819;23;20170;-88
2023/04/07 00:20:57;;;;;;;5.87;5.23;;;;;;;8.68;43.72;95590.34;6183142;23;20198;-87
2023/04/07 00:23:24;;;;;;;5.40;4.90;;;;;;;8.62;44.25;95586.69;6183862;23;20205;-88
2023/04/07 00:25:50;;;;;;;6.07;5.10;;;;;;;8.62;44.67;95589.25;6183005;23;20174;-87
2023/04/07 00:28:18;;;;;;;6.33;4.87;;;;;;;8.60;44.73;95589.44;6182955;23;20166;-88
2023/04/07 00:30:47;;;;;;;5.77;5.13;;;;;;;8.62;44.87;95586.69;6182567;23;20197;-87
2023/04/07 00:33:13;;;;;;;5.60;4.90;;;;;;;8.58;45.24;95593.13;6182584;23;20178;-87
2023/04/07 00:35:40;;;;;;;7.63;4.97;;;;;;;8.59;45.33;95589.59;6181950;23;20178;-87
2023/04/07 00:38:07;;;;;;;5.67;5.10;;;;;;;8.45;46.21;95593.63;6182470;23;20212;-88
2023/04/07 00:40:33;;;;;;;5.47;4.97;;;;;;;8.38;46.62;95592.66;6182682;23;20505;-88
2023/04/07 00:43:01;;;;;;;5.90;4.77;;;;;;;8.42;46.05;95588.03;6182254;23;20653;-87
2023/04/07 00:45:29;;;;;;;5.00;4.50;;;;;;;8.39;46.03;95594.28;6182608;23;20205;-88
2023/04/07 00:47:56;;;;;;;5.53;4.90;;;;;;;8.45;45.81;95583.38;6182324;23;20185;-87
2023/04/07 00:50:23;;;;;;;6.33;5.40;;;;;;;8.41;46.06;95576.97;6182246;23;20205;-87
2023/04/07 00:52:50;;;;;;;5.30;4.80;;;;;;;8.44;45.76;95576.63;6181811;23;20205;-88
2023/04/07 00:55:19;;;;;;;6.27;4.67;;;;;;;8.50;45.68;95577.72;6183949;23;20174;-89
2023/04/07 00:57:46;;;;;;;5.73;5.07;;;;;;;8.47;45.57;95576.28;6185637;23;20174;-88
2023/04/07 01:00:14;;;;;;;6.17;5.07;;;;;;;8.44;45.86;95568.94;6184829;23;20824;-87
2023/04/07 01:02:51;;;;;;;7.40;5.50;;;;;;;8.42;45.52;95576.00;6183938;23;20198;-87
2023/04/07 01:05:25;;;;;;;5.60;5.10;;;;;;;8.40;45.61;95566.84;6184056;23;20672;-89
2023/04/07 01:07:58;;;;;;;5.63;4.73;;;;;;;8.39;45.68;95570.38;6184698;23;20245;-87
2023/04/07 01:10:34;;;;;;;6.93;5.30;;;;;;;8.39;45.68;95567.81;6184692;23;20167;-88
2023/04/07 01:13:13;;;;;;;5.63;4.70;;;;;;;8.39;45.56;95563.50;6183332;23;20330;-85
2023/04/07 01:15:46;;;;;;;7.13;5.50;;;;;;;8.40;45.54;95565.09;6185114;23;20185;-86
2023/04/07 01:18:20;;;;;;;5.70;5.10;;;;;;;8.39;45.62;95567.81;6184764;23;20205;-87
2023/04/07 01:20:50;;;;;;;5.70;4.80;;;;;;;8.38;45.58;95561.88;6183976;23;20614;-87
2023/04/07 01:23:23;;;;;;;7.47;5.23;;;;;;;8.43;45.52;95563.97;6184904;23;20178;-88
2023/04/07 01:26:07;;;;;;;6.03;4.93;;;;;;;8.41;45.60;95566.69;6184006;23;20163;-87
2023/04/07 01:29:15;;;;;;;5.17;4.67;;;;;;;8.41;46.21;95566.69;6184239;23;20178;-88
2023/04/07 01:31:44;;;;;;;5.07;4.33;;;;;;;8.46;46.04;95566.22;6184762;23;20198;-87
2023/04/07 01:34:12;;;;;;;7.23;5.10;;;;;;;8.43;45.73;95564.78;6184892;23;20178;-89
2023/04/07 01:36:39;;;;;;;6.23;5.60;;;;;;;8.39;46.14;95567.81;6184851;23;20174;-88
2023/04/07 01:39:07;;;;;;;7.50;4.90;;;;;;;8.39;46.04;95557.56;6184537;23;20213;-87
2023/04/07 01:41:34;;;;;;;5.17;4.30;;;;;;;8.35;46.67;95562.22;6184096;23;20673;-88
2023/04/07 01:44:01;;;;;;;5.90;4.40;;;;;;;8.40;46.65;95566.84;6184048;23;20194;-87
2023/04/07 01:46:28;;;;;;;5.07;4.57;;;;;;;8.46;46.21;95559.31;6184235;23;20708;-87
2023/04/07 01:48:57;;;;;;;5.77;4.97;;;;;;;8.47;46.09;95568.59;6183629;23;20178;-88
2023/04/07 01:51:26;;;;;;;5.53;4.23;;;;;;;8.49;46.57;95555.59;6183577;23;20201;-89
2023/04/07 01:53:53;;;;;;;4.53;4.00;;;;;;;8.51;46.29;95556.22;6184198;23;20220;-88
2023/04/07 01:56:24;;;;;;;6.90;4.10;;;;;;;8.52;46.70;95563.78;6183236;23;20205;-89
2023/04/07 01:58:51;;;;;;;5.20;4.40;;;;;;;8.47;47.09;95566.03;6183986;23;20158;-88
2023/04/07 02:01:19;;;;;;;4.80;3.93;;;;;;;8.47;47.36;95560.88;6182885;23;20202;-88
2023/04/07 02:03:55;;;;;;;4.73;4.27;;;;;;;8.50;47.27;95549.50;6183783;23;20170;-87
2023/04/07 02:06:31;;;;;;;4.73;4.23;;;;;;;8.51;47.27;95557.03;6184291;23;20159;-89
2023/04/07 02:09:02;;;;;;;4.57;4.17;;;;;;;8.48;47.95;95554.00;6183907;23;20687;-88
2023/04/07 02:11:32;;;;;;;4.43;3.87;;;;;;;8.45;48.45;95555.16;6184067;23;20198;-86
2023/04/07 02:14:01;;;;;;;4.20;3.80;;;;;;;8.48;48.12;95543.72;6183619;23;20651;-87
2023/04/07 02:16:29;;;;;;;4.63;3.57;;;;;;;8.46;48.44;95556.75;6184096;23;20189;-88
2023/04/07 02:19:01;;;;;;;4.40;3.87;;;;;;;8.53;48.46;95546.59;6183192;23;20483;-87
2023/04/07 02:21:30;;;;;;;4.07;3.67;;;;;;;8.50;49.24;95549.50;6183458;23;20200;-87
2023/04/07 02:23:57;;;;;;;4.33;3.50;;;;;;;8.50;49.10;95547.72;6183937;23;20177;-85
2023/04/07 02:26:23;;;;;;;4.13;3.63;;;;;;;8.49;49.74;95546.13;6183779;23;20186;-89
2023/04/07 02:28:50;;;;;;;3.50;3.20;;;;;;;8.53;49.76;95541.47;6183469;23;20178;-88
2023/04/07 02:31:16;;;;;;;3.83;3.43;;;;;;;8.54;49.86;95540.50;6183988;23;20205;-88
2023/04/07 02:33:43;;;;;;;3.60;3.30;;;;;;;8.45;51.31;95538.94;6183354;23;20178;-87
2023/04/07 02:36:09;;;;;;;3.37;3.07;;;;;;;8.41;51.67;95538.47;6183573;23;20235;-87
2023/04/07 02:38:41;;;;;;;3.90;3.20;;;;;;;8.48;51.41;95543.72;6183423;23;20214;-87
2023/04/07 02:41:07;;;;;;;4.30;3.20;;;;;;;8.57;51.21;95545.31;6183273;23;20695;-87
2023/04/07 02:43:34;;;;;;;3.50;3.20;;;;;;;8.53;52.43;95541.47;6184267;23;20181;-87
2023/04/07 02:46:03;;;;;;;3.70;3.23;;;;;;;8.48;53.25;95544.53;6185161;23;20198;-87
2023/04/07 02:48:29;;;;;;;3.70;3.40;;;;;;;8.27;54.58;95539.13;6185373;23;20178;-87
2023/04/07 02:50:56;;;;;;;3.57;3.23;;;;;;;8.24;55.14;95544.56;6184984;23;20209;-88
2023/04/07 02:53:24;;;;;;;4.07;3.10;;;;;;;8.27;54.87;95536.56;6185463;23;20623;-88
2023/04/07 02:55:52;;;;;;;3.80;3.50;;;;;;;8.16;55.79;95540.25;6184962;23;20265;-88
2023/04/07 02:58:18;;;;;;;3.97;3.43;;;;;;;8.16;56.16;95539.44;6185780;23;20174;-88
2023/04/07 03:00:45;;;;;;;4.00;3.60;;;;;;;8.01;57.07;95536.75;6183997;23;20226;-87
2023/04/07 03:03:11;;;;;;;3.50;3.20;;;;;;;8.07;56.56;95543.00;6186279;23;20678;-88
2023/04/07 03:05:40;;;;;;;3.73;3.43;;;;;;;8.01;57.33;95541.06;6185658;23;20198;-88
2023/04/07 03:08:06;;;;;;;3.37;3.07;;;;;;;8.06;57.58;95538.81;6184767;23;20178;-89
2023/04/07 03:10:33;;;;;;;3.40;3.10;;;;;;;8.01;58.22;95535.94;6185743;23;20560;-89
2023/04/07 03:13:00;;;;;;;3.90;3.50;;;;;;;8.04;58.57;95538.19;6186042;23;20166;-88
2023/04/07 03:15:30;;;;;;;4.13;3.60;;;;;;;8.05;58.67;95540.59;6185903;23;20178;-88
2023/04/07 03:17:56;;;;;;;3.93;3.53;;;;;;;8.16;58.23;95531.75;6185271;23;20180;-89
2023/04/07 03:20:22;;;;;;;3.50;3.20;;;;;;;8.16;59.32;95539.44;6185535;23;20201;-88
2023/04/07 03:22:51;;;;;;;4.27;3.87;;;;;;;8.17;59.05;95535.91;6183604;23;20760;-88
2023/04/07 03:25:21;;;;;;;4.40;4.00;;;;;;;8.23;58.64;95533.50;6184193;23;20763;-89
2023/04/07 03:27:47;;;;;;;4.20;3.80;;;;;;;8.23;59.80;95527.59;6185128;23;20179;-88
2023/04/07 03:30:15;;;;;;;3.77;3.30;;;;;;;8.31;59.46;95533.47;6185505;23;20261;-88
2023/04/07 03:32:42;;;;;;;5.10;3.70;;;;;;;8.38;58.66;95530.31;6185091;23;20194;-88
2023/04/07 03:35:11;;;;;;;4.63;3.50;;;;;;;8.37;59.14;95526.94;6185450;23;20178;-88
2023/04/07 03:37:39;;;;;;;4.17;3.77;;;;;;;8.32;60.03;95527.41;6184216;23;20178;-88
2023/04/07 03:40:10;;;;;;;3.90;3.50;;;;;;;8.33;59.43;95523.09;6184594;23;20220;-88
2023/04/07 03:42:36;;;;;;;3.73;3.43;;;;;;;8.40;59.03;95526.59;6185045;23;20198;-89
2023/04/07 03:45:05;;;;;;;3.80;3.40;;;;;;;8.44;59.62;95520.19;6185559;23;20197;-89
2023/04/07 03:47:33;;;;;;;4.30;3.57;;;;;;;8.48;59.70;95518.06;6184802;23;20228;-88
2023/04/07 03:50:00;;;;;;;3.97;3.60;;;;;;;8.45;59.49;95516.66;6184831;23;20253;-88
2023/04/07 03:52:26;;;;;;;5.03;3.87;;;;;;;8.44;59.97;95511.69;6184400;23;20226;-87
2023/04/07 03:54:53;;;;;;;6.60;3.93;;;;;;;8.44;60.13;95511.69;6184830;23;20181;-85
2023/04/07 03:57:19;;;;;;;4.13;3.73;;;;;;;8.43;60.57;95510.91;6185379;23;20568;-87
2023/04/07 03:59:49;;;;;;;3.97;3.57;;;;;;;8.36;61.29;95515.06;6185777;23;20517;-88
2023/04/07 04:02:16;;;;;;;4.20;3.80;;;;;;;8.35;61.02;95520.34;6183687;23;20647;-87
2023/04/07 04:04:44;;;;;;;4.90;3.80;;;;;;;8.39;60.74;95511.38;6183824;23;20537;-86
2023/04/07 04:07:10;;;;;;;4.27;3.83;;;;;;;8.37;60.95;95519.22;6185412;23;20210;-88
2023/04/07 04:09:37;;;;;;;4.07;3.67;;;;;;;8.29;61.60;95504.63;6184719;23;20174;-87
2023/04/07 04:12:03;;;;;;;4.83;4.20;;;;;;;8.36;62.03;95504.00;6185327;23;20221;-86
2023/04/07 04:14:30;;;;;;;4.33;3.90;;;;;;;8.26;61.86;95502.41;6184939;23;20190;-88
2023/04/07 04:16:56;;;;;;;7.23;4.23;;;;;;;8.25;62.54;95507.69;6184525;23;20182;-88
2023/04/07 04:19:22;;;;;;;6.10;4.20;;;;;;;8.23;61.60;95499.38;6184976;23;20513;-86
2023/04/07 04:21:50;;;;;;;4.10;3.70;;;;;;;8.20;62.63;95503.06;6185382;23;20201;-87
2023/04/07 04:24:17;;;;;;;4.27;3.83;;;;;;;8.20;62.82;95503.06;6184815;23;20182;-88
2023/04/07 04:26:43;;;;;;;4.53;4.13;;;;;;;8.15;62.89;95510.44;6185442;23;20269;-87
2023/04/07 04:29:10;;;;;;;4.00;3.70;;;;;;;8.01;63.52;95505.97;6184631;23;20177;-89
2023/04/07 04:31:36;;;;;;;5.00;4.27;;;;;;;8.04;62.60;95507.41;6184812;23;20608;-89
2023/04/07 04:34:03;;;;;;;4.87;3.77;;;;;;;8.05;63.17;95502.13;6185284;23;20174;-88
2023/04/07 04:36:30;;;;;;;4.60;4.20;;;;;;;8.03;63.67;95509.19;6185320;23;20174;-87
2023/04/07 04:39:01;;;;;;;4.97;4.33;;;;;;;8.01;63.54;95511.09;6185312;23;20253;-88
2023/04/07 04:41:27;;;;;;;4.47;4.07;;;;;;;8.00;64.00;95506.94;6185261;23;20194;-88
2023/04/07 04:43:53;;;;;;;5.00;4.30;;;;;;;7.98;63.20;95503.72;6185244;23;20177;-88
2023/04/07 04:46:20;;;;;;;6.30;4.57;;;;;;;8.00;63.73;95504.38;6184466;23;20198;-88
2023/04/07 04:48:47;;;;;;;5.67;4.30;;;;;;;7.91;64.28;95506.13;6184710;23;20178;-87
2023/04/07 04:51:13;;;;;;;5.17;4.37;;;;;;;7.87;63.80;95504.06;6185348;23;20206;-89
2023/04/07 04:53:40;;;;;;;6.20;4.80;;;;;;;7.85;64.31;95499.09;6185095;23;20194;-87
2023/04/07 04:56:08;;;;;;;4.87;4.40;;;;;;;7.80;64.00;95501.34;6184556;23;20195;-88
2023/04/07 04:58:35;;;;;;;5.10;4.47;;;;;;;7.81;64.37;95504.72;6184715;23;20208;-87
2023/04/07 05:01:01;;;;;;;5.00;4.27;;;;;;;7.77;64.24;95508.56;6183668;23;20506;-89
2023/04/07 05:03:28;;;;;;;4.90;4.40;;;;;;;7.66;65.14;95502.00;6184695;23;20185;-88
2023/04/07 05:05:55;;;;;;;5.17;4.67;;;;;;;7.74;64.57;95507.09;6185065;23;20198;-89
2023/04/07 05:08:21;;;;;;;5.60;4.70;;;;;;;7.82;64.13;95498.63;6184580;23;20175;-87
2023/04/07 05:10:48;;;;;;;5.20;4.70;;;;;;;7.87;64.60;95493.81;6185100;23;20184;-89
2023/04/07 05:13:16;;;;;;;5.40;4.90;;;;;;;7.94;64.67;95499.88;6184268;23;20180;-89
2023/04/07 05:15:45;;;;;;;5.37;4.87;;;;;;;7.95;64.12;95497.16;6185015;23;20527;-89
2023/04/07 05:18:14;;;;;;;5.70;5.10;;;;;;;7.93;64.23;95498.28;6183610;23;20506;-87
2023/04/07 05:20:42;;;;;;;6.00;4.70;;;;;;;7.86;64.54;95498.16;6184522;23;20174;-87
2023/04/07 05:23:09;;;;;;;5.83;4.83;;;;;;;7.75;64.85;95495.91;6184490;23;20174;-88
2023/04/07 05:25:35;;;;;;;7.10;4.67;;;;;;;7.67;65.69;95492.56;6184887;23;20201;-87
2023/04/07 05:28:02;;;;;;;5.40;4.90;;;;;;;7.68;65.15;95489.84;6184125;23;20186;-88
2023/04/07 05:30:37;;;;;;;5.87;5.27;;;;;;;7.76;64.51;95497.50;6184400;23;20209;-88
2023/04/07 05:33:03;;;;;;;5.27;4.77;;;;;;;7.79;65.61;95497.19;6184665;23;20541;-87
2023/04/07 05:35:30;;;;;;;5.70;5.10;;;;;;;7.84;64.65;95502.63;6183846;23;20177;-87
2023/04/07 05:38:00;;;;;;;6.93;5.10;;;;;;;7.90;64.45;95501.97;6184809;23;20270;-87
2023/04/07 05:40:27;;;;;;;6.00;5.40;;;;;;;7.87;65.21;95498.94;6184910;23;20166;-87
2023/04/07 05:42:53;;;;;;;6.07;5.40;;;;;;;7.92;65.33;95492.34;6186296;23;20194;-88
2023/04/07 05:45:25;;;;;;;5.53;5.03;;;;;;;8.03;64.64;95498.13;6187293;23;20198;-88
2023/04/07 05:47:53;;;;;;;6.50;5.03;;;;;;;8.12;63.99;95497.94;6186802;23;20193;-86
2023/04/07 05:50:20;;;;;;;6.10;5.50;;;;;;;8.18;63.65;95491.34;6187130;23;20242;-87
2023/04/07 05:52:49;;;;;;;6.87;5.10;;;;;;;8.20;63.25;95494.56;6186788;23;20198;-88
2023/04/07 05:55:16;;;;;;;6.50;5.30;;;;;;;8.11;64.58;95490.41;6186822;23;20179;-89
2023/04/07 05:57:49;;;;;;;5.50;4.83;;;;;;;8.17;63.87;95489.75;6186482;23;20257;-87
2023/04/07 06:00:19;;;;;;;6.27;5.27;;;;;;;8.19;63.35;95488.63;6186024;23;20166;-87
2023/04/07 06:02:46;;;;;;;6.00;5.40;;;;;;;8.21;63.77;95481.56;6184907;23;20202;-87
2023/04/07 06:05:14;;;;;;;7.50;5.60;;;;;;;8.26;63.15;95481.91;6185086;23;20198;-88
2023/04/07 06:07:40;;;;;;;5.80;5.03;;;;;;;8.31;63.11;95481.38;6186537;23;20174;-86
2023/04/07 06:10:08;;;;;;;8.53;5.60;;;;;;;8.25;63.39;95485.41;6185247;23;20178;-87
2023/04/07 06:12:35;;;;;;;6.07;5.33;;;;;;;8.22;63.67;95470.34;6186967;23;20693;-88
2023/04/07 06:15:01;;;;;;;5.80;5.17;;;;;;;8.23;63.76;95471.16;6186466;23;20252;-87
2023/04/07 06:17:28;;;;;;;5.77;5.20;;;;;;;8.10;63.98;95484.47;6186821;23;20262;-87
2023/04/07 06:19:54;;;;;;;6.47;5.40;;;;;;;8.13;63.64;95470.53;6185850;23;20174;-86
2023/04/07 06:22:22;;;;;;;5.73;5.10;;;;;;;8.21;63.24;95471.31;6184863;23;20198;-87
2023/04/07 06:24:48;;;;;;;6.50;5.20;;;;;;;8.21;63.67;95461.06;6184299;23;20565;-86
2023/04/07 06:27:15;;;;;;;6.03;4.90;;;;;;;8.28;63.43;95456.84;6183480;23;20209;-86
2023/04/07 06:29:41;;;;;;;5.60;5.10;;;;;;;8.23;64.13;95456.56;6183962;23;20180;-86
2023/04/07 06:32:10;;;;;;;5.70;5.20;;;;;;;8.23;63.18;95458.34;6183912;23;20198;-89
2023/04/07 06:34:36;;;;;;;5.50;5.00;;;;;;;8.34;62.81;95459.75;6184236;23;20575;-86
2023/04/07 06:37:04;;;;;;;5.70;5.10;;;;;;;8.41;63.29;95458.16;6184207;23;20177;-88
2023/04/07 06:39:32;;;;;;;8.03;5.90;;;;;;;8.45;63.69;95451.72;6184447;23;20511;-86
2023/04/07 06:41:58;;;;;;;5.83;5.30;;;;;;;8.42;63.49;95449.47;6183253;23;20898;-87
2023/04/07 06:44:25;;;;;;;5.80;5.20;;;;;;;8.39;63.21;95453.19;6183153;23;20209;-87
2023/04/07 06:46:52;;;;;;;6.37;5.07;;;;;;;8.40;63.60;95456.53;6186081;23;20194;-88
2023/04/07 06:49:18;;;;;;;6.93;5.80;;;;;;;8.41;63.39;95447.88;6184291;23;20509;-86
2023/04/07 06:51:45;;;;;;;6.80;5.73;;;;;;;8.41;63.74;95451.25;6184179;23;20988;-86
2023/04/07 06:54:13;;;;;;;7.73;6.50;;;;;;;8.46;63.49;95445.63;6185992;23;20178;-87
2023/04/07 06:56:43;;;;;;;8.10;7.27;;;;;;;8.55;63.41;95447.97;6186024;23;20185;-88
2023/04/07 06:59:10;;;;;;;10.93;9.03;;;;;;;8.61;62.66;95444.75;6185284;23;20182;-86
2023/04/07 07:01:37;;;;;;;7.87;6.10;;;;;;;8.64;62.88;95447.00;6184094;23;20221;-87
2023/04/07 07:04:04;;;;;;;6.50;5.63;;;;;;;8.76;62.35;95439.69;6186042;23;20178;-87
2023/04/07 07:06:31;;;;;;;7.03;5.97;;;;;;;8.84;61.62;95449.13;6185313;23;20604;-87
2023/04/07 07:09:02;;;;;;;8.53;5.33;;;;;;;8.81;62.01;95454.59;6184657;23;20638;-86
2023/04/07 07:11:28;;;;;;;6.03;5.30;;;;;;;8.82;60.91;95449.31;6184935;23;20249;-86
2023/04/07 07:13:56;;;;;;;5.87;5.20;;;;;;;8.86;60.86;95447.97;6184359;23;20633;-87
2023/04/07 07:16:23;;;;;;;6.33;5.23;;;;;;;8.92;60.38;95452.44;6184569;23;20174;-86
2023/04/07 07:18:50;;;;;;;7.03;5.27;;;;;;;9.02;60.19;95452.25;6185043;23;20178;-87
2023/04/07 07:21:17;;;;;;;7.30;5.53;;;;;;;8.98;60.97;95453.53;6185107;23;20202;-88
2023/04/07 07:23:44;;;;;;;5.63;5.13;;;;;;;9.08;60.06;95450.75;6184900;23;20174;-86
2023/04/07 07:26:10;;;;;;;6.27;5.67;;;;;;;9.07;59.82;95455.06;6184296;23;20277;-87
2023/04/07 07:28:37;;;;;;;6.03;5.43;;;;;;;9.20;59.20;95452.75;6184607;23;20173;-87
2023/04/07 07:31:11;;;;;;;5.60;5.10;;;;;;;9.15;59.77;95455.03;6186224;23;20198;-87
2023/04/07 07:33:39;;;;;;;5.37;4.87;;;;;;;9.09;59.95;95454.91;6183966;23;20236;-86
2023/04/07 07:36:06;;;;;;;6.87;5.77;;;;;;;9.10;59.26;95462.44;6184221;23;20178;-87
2023/04/07 07:38:32;;;;;;;5.90;5.30;;;;;;;9.24;59.54;95455.75;6184055;23;20180;-87
2023/04/07 07:40:58;;;;;;;5.90;5.30;;;;;;;9.23;59.48;95464.47;6183745;23;20209;-86
2023/04/07 07:43:25;;;;;;;6.23;5.07;;;;;;;9.24;59.15;95463.47;6184649;23;20186;-87
2023/04/07 07:45:51;;;;;;;5.40;4.90;;;;;;;9.14;59.41;95473.19;6184368;23;20193;-87
2023/04/07 07:48:19;;;;;;;6.87;5.50;;;;;;;9.11;59.26;95468.38;6184034;23;20182;-86
2023/04/07 07:50:46;;;;;;;5.73;5.13;;;;;;;9.04;59.15;95468.28;6184466;23;20182;-88
2023/04/07 07:53:13;;;;;;;7.37;5.37;;;;;;;9.06;59.34;95461.19;6184215;23;20185;-88
2023/04/07 07:55:39;;;;;;;5.43;4.93;;;;;;;9.14;59.44;95468.03;6184305;23;20174;-85
2023/04/07 07:58:06;;;;;;;5.70;5.03;;;;;;;9.18;59.18;95466.75;6184639;23;20185;-87
2023/04/07 08:00:32;;;;;;;7.10;4.87;;;;;;;9.13;59.00;95469.00;6183773;23;20185;-88
2023/04/07 08:02:58;;;;;;;5.57;5.03;;;;;;;9.24;58.62;95455.75;6183412;23;20197;-86
2023/04/07 08:05:26;;;;;;;5.77;5.23;;;;;;;9.22;59.10;95463.66;6183885;23;20186;-88
2023/04/07 08:07:54;;;;;;;6.13;5.13;;;;;;;9.26;58.92;95456.41;6184324;23;20178;-88
2023/04/07 08:10:20;;;;;;;5.10;4.60;;;;;;;9.35;58.36;95457.94;6185492;23;20184;-87
2023/04/07 08:12:47;;;;;;;5.70;5.20;;;;;;;9.30;58.23;95452.50;6185095;23;20195;-87
2023/04/07 08:15:13;;;;;;;5.57;5.07;;;;;;;9.39;58.51;95448.13;6185203;23;20225;-88
2023/04/07 08:17:40;;;;;;;5.73;5.23;;;;;;;9.55;58.08;95448.00;6185294;23;20174;-88
2023/04/07 08:20:09;;;;;;;5.60;5.10;;;;;;;9.64;57.49;95458.03;6185868;23;20178;-87
2023/04/07 08:22:37;;;;;;;5.27;4.50;;;;;;;9.67;57.58;95459.47;6185478;23;20578;-87
2023/04/07 08:25:03;;;;;;;5.50;4.97;;;;;;;9.74;57.18;95454.44;6185734;23;20175;-86
2023/04/07 08:27:30;;;;;;;5.93;5.30;;;;;;;9.83;56.94;95449.03;6185079;23;20205;-88
2023/04/07 08:30:00;;;;;;;5.97;5.03;;;;;;;9.96;56.52;95451.00;6185359;23;20185;-88
2023/04/07 08:32:34;;;;;;;5.70;5.13;;;;;;;9.95;56.16;95444.28;6185702;23;20823;-87
2023/04/07 08:35:01;;;;;;;5.60;5.10;;;;;;;9.84;55.91;95448.06;6185904;23;20244;-87
2023/04/07 08:37:27;;;;;;;5.27;4.63;;;;;;;9.98;56.13;95449.88;6184685;23;20228;-87
2023/04/07 08:39:55;;;;;;;5.73;5.13;;;;;;;10.08;56.13;95447.03;6185433;23;20174;-88
2023/04/07 08:42:27;;;;;;;6.23;5.60;;;;;;;10.19;55.71;95432.97;6185163;23;20281;-87
2023/04/07 08:44:54;;;;;;;5.87;5.27;;;;;;;10.12;55.45;95439.75;6185322;23;20162;-88
2023/04/07 08:47:22;;;;;;;5.73;5.13;;;;;;;10.13;55.45;95436.22;6185521;23;20205;-88
2023/04/07 08:49:52;;;;;;;5.70;5.10;;;;;;;10.47;55.06;95433.13;6185394;23;20509;-86
2023/04/07 08:52:22;;;;;;;5.30;4.80;;;;;;;10.63;54.38;95428.56;6186177;23;20194;-87
2023/04/07 08:54:49;;;;;;;6.70;5.50;;;;;;;10.71;53.91;95432.81;6185312;23;20170;-86
2023/04/07 08:57:18;;;;;;;6.13;5.40;;;;;;;10.76;53.50;95434.84;6184984;23;20178;-87
2023/04/07 08:59:47;;;;;;;9.30;5.10;;;;;;;10.87;53.39;95435.16;6185261;23;20233;-87
2023/04/07 09:02:16;;;;;;;6.03;5.07;;;;;;;10.88;52.76;95438.53;6185024;23;20201;-87
2023/04/07 09:04:44;;;;;;;6.20;5.53;;;;;;;10.97;53.30;95438.25;6185748;23;20174;-87
2023/04/07 09:07:10;;;;;;;6.03;5.53;;;;;;;11.26;52.53;95433.97;6184738;23;20193;-87
2023/04/07 09:09:39;;;;;;;6.57;5.67;;;;;;;11.70;52.19;95431.19;6184750;23;20197;-87
2023/04/07 09:12:06;;;;;;;5.60;5.10;;;;;;;11.79;50.86;95432.66;6183615;23;20233;-87
2023/04/07 09:14:34;;;;;;;7.10;6.40;;;;;;;12.01;50.93;95429.06;6184039;23;20193;-87
2023/04/07 09:17:00;;;;;;;6.67;6.03;;;;;;;12.04;50.70;95439.00;6186355;23;20645;-87
2023/04/07 09:19:27;;;;;;;7.23;5.20;;;;;;;11.81;49.65;95440.22;6185636;23;20186;-89
2023/04/07 09:21:54;;;;;;;6.00;5.40;;;;;;;11.67;50.27;95431.56;6187393;23;20198;-87
2023/04/07 09:24:21;;;;;;;5.90;5.30;;;;;;;11.86;50.36;95435.31;6187958;23;20178;-88
2023/04/07 09:26:48;;;;;;;5.30;4.80;;;;;;;11.95;49.00;95431.56;6186968;23;20260;-87
2023/04/07 09:29:19;;;;;;;6.90;5.17;;;;;;;12.06;49.09;95418.16;6185540;23;20201;-86
2023/04/07 09:31:49;;;;;;;5.87;5.27;;;;;;;12.31;49.47;95426.25;6185350;23;20660;-86
2023/04/07 09:34:25;;;;;;;6.47;5.87;;;;;;;12.95;47.69;95418.16;6185174;23;20182;-89
2023/04/07 09:36:51;;;;;;;6.03;5.43;;;;;;;13.31;46.53;95421.22;6184254;23;20165;-87
2023/04/07 09:39:18;;;;;;;5.50;4.87;;;;;;;13.45;46.74;95414.31;6183749;23;20178;-89
2023/04/07 09:41:44;;;;;;;5.57;4.67;;;;;;;13.62;46.23;95414.69;6182860;23;20549;-87
2023/04/07 09:44:11;;;;;;;5.50;5.00;;;;;;;13.63;44.96;95411.91;6183657;23;20193;-86
2023/04/07 09:46:49;;;;;;;5.23;4.83;;;;;;;14.05;45.08;95415.03;6183584;23;20201;-88
2023/04/07 09:49:16;;;;;;;5.27;4.87;;;;;;;14.42;44.15;95400.66;6183829;23;20163;-87
2023/04/07 09:51:55;;;;;;;5.57;5.07;;;;;;;14.61;43.28;95397.19;6183843;23;20199;-87
2023/04/07 09:54:33;;;;;;;5.40;4.90;;;;;;;15.11;42.21;95395.53;6183987;23;20254;-87
2023/04/07 09:57:01;;;;;;;5.10;4.60;;;;;;;15.69;42.18;95400.53;6184610;23;20181;-88
2023/04/07 09:59:28;;;;;;;4.80;4.40;;;;;;;15.35;40.10;95398.38;6184416;23;20240;-88
2023/04/07 10:01:56;;;;;;;5.72;5.18;;;;;;;14.40;41.64;95400.03;6182654;23;20205;-87
2023/04/07 10:04:23;;;;;;;4.97;4.50;;;;;;;13.75;42.89;95404.34;6184215;23;20533;-88
2023/04/07 10:06:50;;;;;;;5.05;4.63;;;;;;;13.51;43.95;95408.31;6182760;23;20204;-88
2023/04/07 10:09:17;;;;;;;5.80;5.30;;;;;;;13.41;44.25;95403.53;6182334;23;20182;-87
2023/04/07 10:11:46;;;;;;;7.05;5.07;;;;;;;13.79;44.33;95402.94;6183579;23;20205;-87
2023/04/07 10:14:13;;;;;;;6.80;5.03;;;;;;;14.12;42.63;95397.72;6184448;23;20657;-87
2023/04/07 10:16:43;;;;;;;5.25;4.85;;;;;;;14.37;42.86;95392.66;6183633;23;20170;-87
2023/04/07 10:19:11;;;;;;;6.17;5.63;;;;;;;14.13;42.86;95394.91;6184385;23;20201;-87
2023/04/07 10:21:42;;;;;;;5.53;4.80;;;;;;;14.03;43.18;95396.34;6183494;23;20217;-87
2023/04/07 10:24:21;;;;;;;5.33;4.80;;;;;;;13.46;43.77;95396.00;6183706;23;20178;-87
2023/04/07 10:26:51;;;;;;;5.40;4.90;;;;;;;13.67;43.81;95394.19;6184210;23;20190;-87
2023/04/07 10:29:19;;;;;;;5.10;4.70;;;;;;;14.38;43.27;95389.09;6184790;23;20163;-87
2023/04/07 10:31:46;;;;;;;5.53;4.80;;;;;;;14.61;42.97;95376.47;6184387;23;20198;-88
2023/04/07 10:34:58;;;;;;;7.00;4.77;;;;;;;14.97;41.72;95377.69;6184853;23;20193;-87
2023/04/07 10:37:26;;;;;;;4.70;4.30;;;;;;;15.40;41.73;95385.56;6186196;23;20159;-86
2023/04/07 10:40:28;;;;;;;5.07;4.68;;;;;;;15.40;40.75;95385.56;6185030;23;20185;-87
2023/04/07 10:42:55;;;;;;;5.30;4.43;;;;;;;15.65;41.41;95383.00;6184973;23;20669;-87
2023/04/07 10:45:54;;;;;;;5.07;4.68;;;;;;;15.32;41.21;95378.84;6185630;23;20212;-88
2023/04/07 10:48:22;;;;;;;5.97;5.38;;;;;;;14.94;41.41;95375.50;6184410;23;20179;-87
2023/04/07 10:51:17;;;;;;;6.25;4.60;;;;;;;14.52;42.02;95382.88;6184515;23;20238;-86
2023/04/07 10:54:25;;;;;;;5.25;4.75;;;;;;;14.50;41.68;95385.66;6185132;23;20171;-87
2023/04/07 10:57:06;;;;;;;5.07;4.68;;;;;;;14.44;41.75;95376.13;6184581;23;20240;-87
2023/04/07 10:59:34;;;;;;;5.38;4.90;;;;;;;14.14;41.87;95383.56;6185120;23;20222;-87
2023/04/07 11:02:32;;;;;;;5.63;5.15;;;;;;;13.69;42.84;95381.84;6184352;23;20205;-87
2023/04/07 11:04:59;;;;;;;5.07;4.57;;;;;;;13.60;42.42;95380.47;6185357;23;20185;-87
2023/04/07 11:07:51;;;;;;;5.20;4.72;;;;;;;13.68;42.60;95377.66;6185679;23;20194;-88
2023/04/07 11:10:19;;;;;;;4.50;4.10;;;;;;;13.71;43.67;95382.44;6185769;23;20196;-87
2023/04/07 11:12:59;;;;;;;4.43;4.03;;;;;;;14.39;43.09;95373.34;6186292;23;20194;-88
2023/04/07 11:15:26;;;;;;;6.07;4.47;;;;;;;14.68;43.42;95372.03;6185958;23;20158;-87
2023/04/07 11:18:23;;;;;;;6.03;5.00;;;;;;;14.89;42.80;95367.53;6186265;23;20507;-88
2023/04/07 11:20:52;;;;;;;5.15;4.65;;;;;;;14.96;42.35;95368.31;6185410;23;20557;-87
2023/04/07 11:23:22;;;;;;;5.53;5.13;;;;;;;14.69;42.64;95359.88;6185222;23;20174;-88
2023/04/07 11:25:50;;;;;;;6.40;4.45;;;;;;;14.59;42.96;95365.53;6184675;23;20606;-87
2023/04/07 11:28:17;;;;;;;6.30;4.53;;;;;;;14.53;43.17;95361.16;6184799;23;20541;-87
2023/04/07 11:30:50;;;;;;;4.82;4.43;;;;;;;14.36;42.93;95365.97;6185085;23;20197;-86
2023/04/07 11:33:19;;;;;;;5.47;4.60;;;;;;;14.32;43.42;95367.38;6184865;23;20182;-88
2023/04/07 11:35:50;;;;;;;4.65;4.25;;;;;;;14.36;42.80;95358.19;6184413;23;20185;-87
2023/04/07 11:38:17;;;;;;;5.05;4.50;;;;;;;14.34;42.58;95367.19;6184596;23;20240;-88
2023/04/07 11:40:46;;;;;;;4.45;4.05;;;;;;;14.22;42.17;95361.06;6184768;23;20197;-88
2023/04/07 11:43:17;;;;;;;5.32;4.63;;;;;;;14.22;42.24;95361.84;6184945;23;20185;-88
2023/04/07 11:45:43;;;;;;;5.20;4.32;;;;;;;14.44;41.75;95360.56;6185418;23;20236;-87
2023/04/07 11:48:29;;;;;;;4.73;4.33;;;;;;;14.56;41.44;95358.16;6184080;23;20201;-88